Time;durP1;ratioP1;P1;durP2;ratioP2;P2;SDS_P1;SDS_P2;PMS_P1;PMS_P2;Temp;Humidity;BMP_temperature;BMP_pressure;BME280_temperature;BME280_humidity;BME280_pressure;Samples;Min_cycle;Max_cycle;Signal;HPM_P1;HPM_P2
2021/03/15 00:00:24;;;;;;;18.08;9.88;;;3.10;99.90;;;;;;5042795;28;20077;-78
2021/03/15 00:02:51;;;;;;;21.27;9.75;;;3.00;99.90;;;;;;5043020;28;20090;-78
2021/03/15 00:05:19;;;;;;;18.27;9.75;;;3.00;99.90;;;;;;5009956;28;20044;-78
2021/03/15 00:07:45;;;;;;;28.08;12.75;;;3.00;99.90;;;;;;5044550;28;20114;-77
2021/03/15 00:10:13;;;;;;;28.73;14.35;;;3.00;99.90;;;;;;5044300;28;20045;-77
2021/03/15 00:12:41;;;;;;;37.92;17.52;;;3.10;99.90;;;;;;5046517;28;20049;-77
2021/03/15 00:15:10;;;;;;;38.30;17.15;;;3.10;99.90;;;;;;5046418;28;20501;-78
2021/03/15 00:17:37;;;;;;;35.40;17.45;;;3.10;99.90;;;;;;5027023;28;20044;-77
2021/03/15 00:20:07;;;;;;;38.97;20.52;;;3.20;99.90;;;;;;5029447;28;20130;-78
2021/03/15 00:22:33;;;;;;;42.40;19.77;;;3.30;99.90;;;;;;5013059;28;20694;-78
2021/03/15 00:25:00;;;;;;;50.20;20.08;;;3.30;99.90;;;;;;5045724;28;20142;-78
2021/03/15 00:27:27;;;;;;;45.15;21.17;;;3.40;99.90;;;;;;5045631;28;20052;-76
2021/03/15 00:29:53;;;;;;;48.83;21.00;;;3.40;99.90;;;;;;5029565;28;20636;-77
2021/03/15 00:32:20;;;;;;;44.83;21.35;;;3.50;99.90;;;;;;5046006;28;20536;-77
2021/03/15 00:34:47;;;;;;;45.20;17.70;;;3.50;99.90;;;;;;5029349;28;20468;-78
2021/03/15 00:37:14;;;;;;;35.70;17.50;;;3.50;99.90;;;;;;5047009;28;20144;-77
2021/03/15 00:39:40;;;;;;;38.20;17.15;;;3.50;99.90;;;;;;5034115;28;20559;-78
2021/03/15 00:42:07;;;;;;;38.58;19.05;;;3.50;99.90;;;;;;5029010;28;20045;-78
2021/03/15 00:44:34;;;;;;;34.05;16.20;;;3.50;99.90;;;;;;5032171;28;20064;-77
2021/03/15 00:47:03;;;;;;;44.40;19.50;;;3.50;99.90;;;;;;5033713;28;20559;-78
2021/03/15 00:49:30;;;;;;;38.13;17.25;;;3.50;99.90;;;;;;5027385;28;20090;-78
2021/03/15 00:51:56;;;;;;;31.02;16.17;;;3.50;99.90;;;;;;5036051;28;20106;-77
2021/03/15 00:54:23;;;;;;;38.25;16.92;;;3.50;99.90;;;;;;5029293;28;20371;-78
2021/03/15 00:56:51;;;;;;;40.78;18.55;;;3.50;99.90;;;;;;5028648;28;20055;-78
2021/03/15 00:59:18;;;;;;;35.22;18.17;;;3.50;99.90;;;;;;5045446;28;20719;-77
2021/03/15 01:01:45;;;;;;;40.30;19.20;;;3.60;99.90;;;;;;5012738;28;20546;-78
2021/03/15 01:04:14;;;;;;;39.47;17.80;;;3.50;99.90;;;;;;5044654;28;20041;-77
2021/03/15 01:06:59;;;;;;;44.85;18.17;;;3.50;99.90;;;;;;5045787;28;20158;-78
2021/03/15 01:09:38;;;;;;;40.10;16.70;;;3.60;99.90;;;;;;5031462;28;20084;-77
2021/03/15 01:12:12;;;;;;;38.88;18.65;;;3.60;99.90;;;;;;5028683;28;20119;-77
2021/03/15 01:14:38;;;;;;;42.05;16.77;;;3.60;99.90;;;;;;5030594;28;20147;-78
2021/03/15 01:17:15;;;;;;;32.97;14.77;;;3.60;99.90;;;;;;5045678;28;20057;-77
2021/03/15 01:19:46;;;;;;;31.50;15.70;;;3.50;99.90;;;;;;5046095;28;20125;-77
2021/03/15 01:22:13;;;;;;;32.40;16.27;;;3.50;99.90;;;;;;5028720;28;20143;-78
2021/03/15 01:24:39;;;;;;;38.33;16.55;;;3.60;99.90;;;;;;5030318;28;20065;-78
2021/03/15 01:27:05;;;;;;;30.80;14.07;;;3.60;99.90;;;;;;5029558;28;20846;-78
2021/03/15 01:29:32;;;;;;;31.25;15.30;;;3.70;99.90;;;;;;5046366;28;20033;-78
2021/03/15 01:31:58;;;;;;;30.20;15.90;;;3.60;99.90;;;;;;5030105;28;20106;-78
2021/03/15 01:34:25;;;;;;;31.50;16.40;;;3.60;99.90;;;;;;5029948;28;20052;-77
2021/03/15 01:37:03;;;;;;;36.92;16.25;;;3.60;99.90;;;;;;5033333;28;20045;-78
2021/03/15 01:39:31;;;;;;;29.17;14.60;;;3.50;99.90;;;;;;5051411;28;20444;-77
2021/03/15 01:42:00;;;;;;;33.00;16.08;;;3.50;99.90;;;;;;5017001;28;20049;-79
2021/03/15 01:44:27;;;;;;;31.42;15.82;;;3.50;99.90;;;;;;5019088;28;20135;-78
2021/03/15 01:46:53;;;;;;;33.63;15.35;;;3.50;99.90;;;;;;5051114;28;20053;-78
2021/03/15 01:49:20;;;;;;;28.13;15.13;;;3.50;99.90;;;;;;5034569;28;20551;-78
2021/03/15 01:51:47;;;;;;;38.63;15.63;;;3.50;99.90;;;;;;5052461;28;20274;-79
2021/03/15 01:54:17;;;;;;;35.38;17.80;;;3.60;99.90;;;;;;5033640;28;20079;-78
2021/03/15 01:56:43;;;;;;;39.13;17.55;;;3.60;99.90;;;;;;5031704;28;20049;-78
2021/03/15 01:59:11;;;;;;;34.00;16.52;;;3.60;99.90;;;;;;5032162;28;20080;-78
2021/03/15 02:01:37;;;;;;;30.58;15.55;;;3.60;99.90;;;;;;5030389;28;20055;-77
2021/03/15 02:04:04;;;;;;;34.25;17.15;;;3.60;99.90;;;;;;5047074;28;20041;-78
2021/03/15 02:06:30;;;;;;;33.72;17.63;;;3.60;99.90;;;;;;5045073;28;20045;-77
2021/03/15 02:08:57;;;;;;;36.13;18.08;;;3.60;99.90;;;;;;5045546;28;20049;-78
2021/03/15 02:11:39;;;;;;;43.97;19.00;;;3.60;99.90;;;;;;5010683;28;20136;-77
2021/03/15 02:14:19;;;;;;;43.58;18.52;;;3.60;99.90;;;;;;5027820;28;20715;-77
2021/03/15 02:17:06;;;;;;;42.78;21.45;;;3.60;99.90;;;;;;5026797;28;20216;-78
2021/03/15 02:20:17;;;;;;;41.95;20.17;;;3.60;99.90;;;;;;5044765;28;20049;-77
2021/03/15 02:22:53;;;;;;;46.90;21.00;;;3.60;99.90;;;;;;5025197;28;20053;-78
2021/03/15 02:25:54;;;;;;;49.95;21.48;;;3.60;99.90;;;;;;5003685;28;20565;-77
2021/03/15 02:28:44;;;;;;;38.40;18.13;;;3.50;99.90;;;;;;5043832;28;20135;-78
2021/03/15 02:31:22;;;;;;;42.83;22.77;;;3.50;99.90;;;;;;5022667;28;20040;-77
2021/03/15 02:34:08;;;;;;;32.40;19.25;;;3.40;99.90;;;;;;5038881;28;20076;-78
2021/03/15 02:36:39;;;;;;;47.90;26.42;;;3.40;99.90;;;;;;5045113;28;20041;-77
2021/03/15 02:39:11;;;;;;;47.50;24.55;;;3.40;99.90;;;;;;5024797;28;20053;-77
2021/03/15 02:41:40;;;;;;;43.05;22.65;;;3.40;99.90;;;;;;5007954;28;20113;-77
2021/03/15 02:44:08;;;;;;;42.35;24.38;;;3.40;99.90;;;;;;5019458;28;20059;-78
2021/03/15 02:46:37;;;;;;;47.28;26.42;;;3.30;99.90;;;;;;5031287;28;20071;-78
2021/03/15 02:49:09;;;;;;;54.42;29.15;;;3.30;99.90;;;;;;5066863;28;20041;-78
2021/03/15 02:51:38;;;;;;;53.53;29.38;;;3.40;99.90;;;;;;5052003;28;20125;-78
2021/03/15 02:54:08;;;;;;;52.95;28.50;;;3.40;99.90;;;;;;5067997;28;20043;-78
2021/03/15 02:56:40;;;;;;;54.78;29.58;;;3.40;99.90;;;;;;5035953;28;20273;-78
2021/03/15 02:59:07;;;;;;;57.05;28.00;;;3.40;99.90;;;;;;5036693;28;20036;-78
2021/03/15 03:01:35;;;;;;;55.40;28.50;;;3.40;99.90;;;;;;5035667;28;20045;-77
2021/03/15 03:04:02;;;;;;;50.72;26.92;;;3.50;99.90;;;;;;5035982;28;20033;-77
2021/03/15 03:06:31;;;;;;;59.03;30.30;;;3.50;99.90;;;;;;5068241;28;20032;-77
2021/03/15 03:09:07;;;;;;;63.83;30.67;;;3.50;99.90;;;;;;5068631;28;20182;-78
2021/03/15 03:11:35;;;;;;;63.55;29.70;;;3.50;99.90;;;;;;5052037;28;20112;-78
2021/03/15 03:14:02;;;;;;;50.78;28.63;;;3.50;99.90;;;;;;5069476;28;20021;-78
2021/03/15 03:16:38;;;;;;;47.30;20.30;;;3.50;99.90;;;;;;5051704;28;20085;-78
2021/03/15 03:19:11;;;;;;;39.40;20.83;;;3.40;99.90;;;;;;5053018;28;20044;-77
2021/03/15 03:21:40;;;;;;;45.92;22.15;;;3.40;99.90;;;;;;5051906;28;20221;-77
2021/03/15 03:24:08;;;;;;;47.55;23.55;;;3.30;99.90;;;;;;5031595;28;20112;-77
2021/03/15 03:26:37;;;;;;;33.50;19.75;;;3.30;99.90;;;;;;5048283;28;20100;-78
2021/03/15 03:29:06;;;;;;;40.08;22.00;;;3.30;99.90;;;;;;5058578;28;20108;-77
2021/03/15 03:31:36;;;;;;;37.72;21.85;;;3.30;99.90;;;;;;5034260;28;20130;-77
2021/03/15 03:34:06;;;;;;;42.08;22.13;;;3.30;99.90;;;;;;5051771;28;20136;-78
2021/03/15 03:36:33;;;;;;;44.50;24.70;;;3.30;99.90;;;;;;5068292;28;20060;-77
2021/03/15 03:38:59;;;;;;;49.92;24.63;;;3.30;99.90;;;;;;5051623;28;20057;-77
2021/03/15 03:41:26;;;;;;;52.97;26.80;;;3.30;99.90;;;;;;5050468;28;20110;-78
2021/03/15 03:44:06;;;;;;;61.88;28.88;;;3.30;99.90;;;;;;5053004;28;20026;-77
2021/03/15 03:46:32;;;;;;;60.17;28.02;;;3.30;99.90;;;;;;5058248;28;20053;-78
2021/03/15 03:49:00;;;;;;;46.47;26.42;;;3.30;99.90;;;;;;5050975;28;20075;-78
2021/03/15 03:51:37;;;;;;;61.33;28.65;;;3.20;99.90;;;;;;5062042;28;20052;-77
2021/03/15 03:54:12;;;;;;;39.40;21.83;;;3.20;99.90;;;;;;5053853;28;20124;-77
2021/03/15 03:56:50;;;;;;;35.47;19.88;;;3.20;99.90;;;;;;5053937;28;20140;-77
2021/03/15 03:59:20;;;;;;;36.47;20.10;;;3.10;99.90;;;;;;5029025;28;20079;-78
2021/03/15 04:01:51;;;;;;;32.88;18.77;;;3.00;99.90;;;;;;5029861;28;20160;-77
2021/03/15 04:04:21;;;;;;;25.98;15.43;;;3.00;99.90;;;;;;5046325;28;20060;-77
2021/03/15 04:06:50;;;;;;;25.10;14.18;;;3.00;99.90;;;;;;5044586;28;20453;-77
2021/03/15 04:09:26;;;;;;;33.03;17.35;;;2.90;99.90;;;;;;5030716;28;20156;-78
2021/03/15 04:11:58;;;;;;;33.78;17.52;;;2.90;99.90;;;;;;5047085;28;20041;-78
2021/03/15 04:14:36;;;;;;;30.95;18.08;;;2.90;99.90;;;;;;5013879;28;20049;-77
2021/03/15 04:17:04;;;;;;;35.22;18.90;;;2.90;99.90;;;;;;5037147;28;20040;-78
2021/03/15 04:19:38;;;;;;;35.72;18.52;;;2.90;99.90;;;;;;5047033;28;20154;-78
2021/03/15 04:22:08;;;;;;;34.33;17.98;;;2.80;99.90;;;;;;5045874;28;20132;-77
2021/03/15 04:24:38;;;;;;;36.60;20.85;;;2.70;99.90;;;;;;5045280;28;20127;-76
2021/03/15 04:27:07;;;;;;;43.20;21.83;;;2.70;99.90;;;;;;5011499;28;20552;-76
2021/03/15 04:29:36;;;;;;;45.30;22.70;;;2.70;99.90;;;;;;5045966;28;20041;-76
2021/03/15 04:32:03;;;;;;;44.38;22.23;;;2.70;99.90;;;;;;5045664;28;20132;-77
2021/03/15 04:34:32;;;;;;;45.80;23.65;;;2.70;99.90;;;;;;5046136;28;20060;-79
2021/03/15 04:37:01;;;;;;;45.85;23.75;;;2.70;99.90;;;;;;5041239;28;20045;-77
2021/03/15 04:39:29;;;;;;;47.20;24.23;;;2.70;99.90;;;;;;5020362;28;20513;-77
2021/03/15 04:41:57;;;;;;;50.78;25.25;;;2.80;99.90;;;;;;5006881;28;20052;-77
2021/03/15 04:44:25;;;;;;;37.80;22.42;;;2.80;99.90;;;;;;5020723;28;20651;-77
2021/03/15 04:46:53;;;;;;;46.40;23.33;;;2.80;99.90;;;;;;5042923;28;20054;-77
2021/03/15 04:49:21;;;;;;;40.88;22.10;;;2.80;99.90;;;;;;5065747;28;20299;-78
2021/03/15 04:51:48;;;;;;;41.33;21.67;;;2.80;99.90;;;;;;5064424;28;20051;-77
2021/03/15 04:54:14;;;;;;;41.95;23.13;;;2.80;99.90;;;;;;5048562;28;20331;-77
2021/03/15 04:56:42;;;;;;;43.55;23.02;;;2.80;99.90;;;;;;5062218;28;20056;-76
2021/03/15 04:59:10;;;;;;;31.60;19.17;;;2.80;99.90;;;;;;5012467;28;20156;-77
2021/03/15 05:01:39;;;;;;;35.08;19.05;;;2.70;99.90;;;;;;5028232;28;20052;-76
2021/03/15 05:04:09;;;;;;;37.60;19.10;;;2.70;99.90;;;;;;5027226;28;20049;-77
2021/03/15 05:06:38;;;;;;;35.75;17.50;;;2.70;99.90;;;;;;5012620;28;20064;-77
2021/03/15 05:09:12;;;;;;;31.98;16.98;;;2.70;99.90;;;;;;5037086;28;20048;-78
2021/03/15 05:11:40;;;;;;;42.42;19.67;;;2.70;99.90;;;;;;5011089;28;20045;-78
2021/03/15 05:14:07;;;;;;;37.42;19.42;;;2.70;99.90;;;;;;5028650;28;20527;-77
2021/03/15 05:16:36;;;;;;;38.40;18.50;;;2.70;99.90;;;;;;5044091;28;20140;-77
2021/03/15 05:19:04;;;;;;;35.03;17.08;;;2.70;99.90;;;;;;5044975;28;20049;-77
2021/03/15 05:21:33;;;;;;;36.63;17.95;;;2.60;99.90;;;;;;5027753;28;20149;-77
2021/03/15 05:24:02;;;;;;;35.00;18.10;;;2.50;99.90;;;;;;5041218;28;20051;-79
2021/03/15 05:26:31;;;;;;;37.53;18.20;;;2.60;99.90;;;;;;5043161;28;20037;-77
2021/03/15 05:29:00;;;;;;;39.42;18.77;;;2.60;99.90;;;;;;5044632;28;20049;-77
2021/03/15 05:31:29;;;;;;;37.72;18.92;;;2.60;99.90;;;;;;5046252;28;20341;-78
2021/03/15 05:33:57;;;;;;;38.40;18.27;;;2.70;99.90;;;;;;5028030;28;20053;-79
2021/03/15 05:36:25;;;;;;;44.92;20.27;;;2.70;99.90;;;;;;5026880;28;20057;-77
2021/03/15 05:38:51;;;;;;;44.67;21.55;;;2.70;99.90;;;;;;5038476;28;20051;-77
2021/03/15 05:41:22;;;;;;;45.58;20.58;;;2.70;99.90;;;;;;5026302;28;20597;-77
2021/03/15 05:44:11;;;;;;;50.83;20.92;;;2.80;99.90;;;;;;5024280;28;20550;-77
2021/03/15 05:47:10;;;;;;;46.80;17.88;;;2.90;99.90;;;;;;5045007;28;20045;-77
2021/03/15 05:49:59;;;;;;;50.67;21.55;;;2.80;99.90;;;;;;5010525;28;20049;-78
2021/03/15 05:53:01;;;;;;;60.92;25.35;;;2.80;99.90;;;;;;5043828;28;20033;-78
2021/03/15 05:55:44;;;;;;;62.03;24.98;;;2.80;99.90;;;;;;5026706;28;20037;-78
2021/03/15 05:58:47;;;;;;;61.28;24.88;;;2.80;99.90;;;;;;5027926;28;20410;-78
2021/03/15 06:01:40;;;;;;;65.97;27.85;;;2.90;99.90;;;;;;5026907;28;20159;-78
2021/03/15 06:04:24;;;;;;;62.83;26.58;;;2.90;99.90;;;;;;5009971;28;20469;-77
2021/03/15 06:06:53;;;;;;;72.60;26.83;;;2.90;99.90;;;;;;5032209;28;20230;-78
2021/03/15 06:09:23;;;;;;;71.93;28.63;;;2.90;99.90;;;;;;5048040;28;20049;-79
2021/03/15 06:11:58;;;;;;;65.35;24.98;;;2.90;99.90;;;;;;5032422;28;20139;-79
2021/03/15 06:14:26;;;;;;;68.25;26.38;;;2.90;99.90;;;;;;5029063;28;20163;-79
2021/03/15 06:16:54;;;;;;;62.03;25.95;;;2.90;99.90;;;;;;5028825;28;20041;-80
2021/03/15 06:19:21;;;;;;;75.57;28.73;;;2.90;99.90;;;;;;5027117;28;20049;-78
2021/03/15 06:21:47;;;;;;;61.40;25.42;;;2.90;99.90;;;;;;5010562;28;20383;-77
2021/03/15 06:24:14;;;;;;;71.10;26.88;;;3.00;99.90;;;;;;5026678;28;20666;-77
2021/03/15 06:26:42;;;;;;;77.97;29.23;;;3.00;99.90;;;;;;5043037;28;20049;-78
2021/03/15 06:29:08;;;;;;;66.20;26.83;;;3.10;99.90;;;;;;5008835;28;20055;-77
2021/03/15 06:31:39;;;;;;;87.60;30.77;;;3.10;99.90;;;;;;5042165;28;20134;-78
2021/03/15 06:34:12;;;;;;;65.80;25.67;;;3.10;99.90;;;;;;5044077;28;20049;-78
2021/03/15 06:36:39;;;;;;;64.53;26.65;;;3.10;99.90;;;;;;5041454;28;20428;-77
2021/03/15 06:39:08;;;;;;;65.65;25.73;;;3.10;99.90;;;;;;5042198;28;20052;-78
2021/03/15 06:41:35;;;;;;;51.28;23.98;;;3.10;99.90;;;;;;5041902;28;20048;-78
2021/03/15 06:44:01;;;;;;;54.85;24.45;;;3.10;99.90;;;;;;5045056;28;20079;-78
2021/03/15 06:46:28;;;;;;;53.75;21.80;;;3.20;99.90;;;;;;5046244;28;20053;-78
2021/03/15 06:48:54;;;;;;;51.90;23.67;;;3.20;99.90;;;;;;5027111;28;20110;-77
2021/03/15 06:51:20;;;;;;;56.95;24.95;;;3.10;99.90;;;;;;5006682;28;20057;-77
2021/03/15 06:53:47;;;;;;;47.05;21.05;;;3.10;99.90;;;;;;5040053;28;20067;-77
2021/03/15 06:56:15;;;;;;;51.63;22.63;;;3.20;99.90;;;;;;5026655;28;20041;-78
2021/03/15 06:58:53;;;;;;;55.53;24.17;;;3.20;99.90;;;;;;5046138;28;20049;-79
2021/03/15 07:01:26;;;;;;;51.92;23.10;;;3.10;99.90;;;;;;5013127;28;20573;-79
2021/03/15 07:04:08;;;;;;;57.97;24.45;;;3.10;99.90;;;;;;5013225;28;20047;-78
2021/03/15 07:06:40;;;;;;;46.70;21.23;;;3.20;99.90;;;;;;5026085;28;20045;-78
2021/03/15 07:09:15;;;;;;;42.15;20.17;;;3.20;99.90;;;;;;5043586;28;20115;-78
2021/03/15 07:11:42;;;;;;;41.47;20.73;;;3.30;99.90;;;;;;5010614;28;20049;-78
2021/03/15 07:14:27;;;;;;;48.42;23.00;;;3.30;99.90;;;;;;5027567;28;20037;-78
2021/03/15 07:16:57;;;;;;;45.28;21.98;;;3.20;99.90;;;;;;5026181;28;20132;-79
2021/03/15 07:19:24;;;;;;;45.75;19.90;;;3.30;99.90;;;;;;5015496;28;20052;-78
2021/03/15 07:21:51;;;;;;;37.78;18.38;;;3.30;99.90;;;;;;5033054;28;20083;-78
2021/03/15 07:24:17;;;;;;;41.20;18.52;;;3.30;99.90;;;;;;5016213;28;20444;-78
2021/03/15 07:26:44;;;;;;;41.88;20.17;;;3.40;99.90;;;;;;5049580;28;20254;-77
2021/03/15 07:29:12;;;;;;;36.58;16.65;;;3.40;99.90;;;;;;5030086;28;20057;-76
2021/03/15 07:31:42;;;;;;;40.00;18.02;;;3.30;99.90;;;;;;5032532;28;20037;-79
2021/03/15 07:34:12;;;;;;;30.25;16.20;;;3.30;99.90;;;;;;5030528;28;20056;-79
2021/03/15 07:37:01;;;;;;;29.92;16.00;;;3.30;99.90;;;;;;5048734;28;20043;-79
2021/03/15 07:39:29;;;;;;;29.30;13.77;;;3.40;99.90;;;;;;5018913;28;20102;-79
2021/03/15 07:41:57;;;;;;;26.02;13.55;;;3.50;99.90;;;;;;5014201;28;20037;-79
2021/03/15 07:44:26;;;;;;;25.60;12.60;;;3.60;99.90;;;;;;5034716;28;20130;-79
2021/03/15 07:46:55;;;;;;;21.30;12.32;;;3.60;99.90;;;;;;5049491;28;20110;-78
2021/03/15 07:49:27;;;;;;;24.23;14.38;;;3.60;99.90;;;;;;5011150;28;20122;-79
2021/03/15 07:52:02;;;;;;;22.48;13.65;;;3.70;99.90;;;;;;5047661;28;20098;-79
2021/03/15 07:54:31;;;;;;;24.70;13.60;;;3.80;99.90;;;;;;5031637;28;20224;-77
2021/03/15 07:57:14;;;;;;;20.42;11.88;;;3.70;99.90;;;;;;5033692;28;20470;-80
2021/03/15 07:59:41;;;;;;;25.25;13.00;;;3.70;99.90;;;;;;5050282;28;20523;-79
2021/03/15 08:02:15;;;;;;;22.45;13.35;;;3.70;99.90;;;;;;5046095;28;20052;-79
2021/03/15 08:04:41;;;;;;;26.88;13.32;;;3.80;99.90;;;;;;5047339;28;20528;-80
2021/03/15 08:07:09;;;;;;;20.25;12.35;;;3.70;99.90;;;;;;5013792;28;20417;-79
2021/03/15 08:09:35;;;;;;;13.38;9.65;;;3.70;99.90;;;;;;5050787;28;20353;-79
2021/03/15 08:12:08;;;;;;;13.07;7.47;;;3.70;99.90;;;;;;5017566;28;20041;-78
2021/03/15 08:14:37;;;;;;;20.45;8.88;;;3.90;99.90;;;;;;5044984;28;20123;-80
2021/03/15 08:17:07;;;;;;;15.20;9.25;;;4.00;99.90;;;;;;5041153;28;20494;-78
2021/03/15 08:19:37;;;;;;;16.70;10.27;;;4.10;99.90;;;;;;5046738;28;20083;-79
2021/03/15 08:22:05;;;;;;;18.15;10.48;;;4.30;99.90;;;;;;5014788;28;20072;-80
2021/03/15 08:24:35;;;;;;;18.35;9.57;;;4.30;99.90;;;;;;5048245;28;20049;-80
2021/03/15 08:27:03;;;;;;;18.20;12.40;;;4.40;99.90;;;;;;5046855;28;20253;-79
2021/03/15 08:29:35;;;;;;;17.77;10.23;;;4.40;99.90;;;;;;5047192;28;20056;-79
2021/03/15 08:32:04;;;;;;;14.18;9.55;;;4.40;99.90;;;;;;5029210;28;20045;-78
2021/03/15 08:34:32;;;;;;;18.50;11.10;;;4.30;99.90;;;;;;5014342;28;20049;-79
2021/03/15 08:36:58;;;;;;;15.90;8.68;;;4.40;99.90;;;;;;5029075;28;20041;-78
2021/03/15 08:39:31;;;;;;;13.68;8.05;;;4.30;99.90;;;;;;5046601;28;20525;-78
2021/03/15 08:42:06;;;;;;;12.05;8.18;;;4.30;99.90;;;;;;5046807;28;20444;-76
2021/03/15 08:44:51;;;;;;;17.77;9.57;;;4.20;99.90;;;;;;5034469;28;20464;-79
2021/03/15 08:47:57;;;;;;;15.40;8.10;;;4.30;99.90;;;;;;5039786;28;20128;-78
2021/03/15 08:50:35;;;;;;;14.63;8.20;;;4.20;99.90;;;;;;5012765;28;20041;-78
2021/03/15 08:53:04;;;;;;;16.92;7.85;;;4.20;99.90;;;;;;5047730;28;20060;-78
2021/03/15 08:55:47;;;;;;;12.52;7.80;;;4.20;99.90;;;;;;5028714;28;20037;-78
2021/03/15 08:58:43;;;;;;;14.32;7.30;;;4.20;99.90;;;;;;5046004;28;20044;-78
2021/03/15 09:01:33;;;;;;;10.98;7.30;;;4.20;99.90;;;;;;5047129;28;20098;-79
2021/03/15 09:04:04;;;;;;;12.45;7.40;;;4.20;99.90;;;;;;5040784;28;20060;-78
2021/03/15 09:06:35;;;;;;;15.48;6.85;;;4.30;99.90;;;;;;5045439;28;20148;-78
2021/03/15 09:09:14;;;;;;;14.45;6.97;;;4.30;99.90;;;;;;5029194;28;20133;-78
2021/03/15 09:11:45;;;;;;;16.63;7.30;;;4.30;99.90;;;;;;5045290;28;20049;-78
2021/03/15 09:14:18;;;;;;;14.63;7.80;;;4.40;99.90;;;;;;5027886;28;20503;-78
2021/03/15 09:16:53;;;;;;;14.65;8.00;;;4.50;99.90;;;;;;5011848;28;20563;-78
2021/03/15 09:19:19;;;;;;;;;;;4.40;99.90;;;;;;5045996;28;20083;-77
2021/03/15 09:21:50;;;;;;;15.23;6.97;;;4.50;99.90;;;;;;5059106;28;19920;-75
2021/03/15 09:24:47;;;;;;;14.13;7.90;;;4.60;99.90;;;;;;5027853;28;20403;-78
2021/03/15 09:27:19;;;;;;;16.63;8.98;;;4.60;99.90;;;;;;5036473;28;20033;-79
2021/03/15 09:30:12;;;;;;;14.40;8.55;;;4.50;99.90;;;;;;5012339;28;20136;-80
2021/03/15 09:32:40;;;;;;;17.55;9.50;;;4.50;99.90;;;;;;5028847;28;20072;-79
2021/03/15 09:35:15;;;;;;;18.17;10.45;;;4.60;99.90;;;;;;5044992;28;20111;-79
2021/03/15 09:37:46;;;;;;;15.40;8.70;;;4.50;99.90;;;;;;5028270;28;20739;-77
2021/03/15 09:40:13;;;;;;;12.55;8.25;;;4.50;99.90;;;;;;5012590;28;20045;-79
2021/03/15 09:42:41;;;;;;;16.85;8.48;;;4.40;99.90;;;;;;5027188;28;20444;-79
2021/03/15 09:45:12;;;;;;;14.40;8.82;;;4.40;99.90;;;;;;5025571;28;20449;-78
2021/03/15 09:47:38;;;;;;;15.45;9.85;;;4.50;99.90;;;;;;5026825;28;20082;-79
2021/03/15 09:50:21;;;;;;;18.48;10.02;;;4.50;99.90;;;;;;5012853;28;20051;-78
2021/03/15 09:53:12;;;;;;;16.33;9.00;;;4.60;99.90;;;;;;5027500;28;20055;-78
2021/03/15 09:55:48;;;;;;;13.57;8.80;;;4.60;99.90;;;;;;5028117;28;20061;-79
2021/03/15 09:58:17;;;;;;;17.10;8.73;;;4.70;99.90;;;;;;5013360;28;20087;-78
2021/03/15 10:00:54;;;;;;;12.02;7.85;;;4.90;99.90;;;;;;5033854;28;20045;-80
2021/03/15 10:03:31;;;;;;;15.32;8.45;;;5.00;99.90;;;;;;5017994;28;20041;-79
2021/03/15 10:06:07;;;;;;;11.93;8.35;;;5.10;99.90;;;;;;5042989;28;20414;-77
2021/03/15 10:08:55;;;;;;;13.02;9.25;;;5.10;99.90;;;;;;5030455;28;20060;-78
2021/03/15 10:11:43;;;;;;;11.43;8.07;;;5.10;99.90;;;;;;5029633;28;20509;-79
2021/03/15 10:14:28;;;;;;;17.48;8.48;;;5.20;99.90;;;;;;5043020;28;20053;-78
2021/03/15 10:17:23;;;;;;;12.45;9.30;;;5.20;99.90;;;;;;5031451;28;20063;-77
2021/03/15 10:20:21;;;;;;;14.05;9.13;;;5.10;99.90;;;;;;5043155;28;20055;-78
2021/03/15 10:22:48;;;;;;;15.45;8.32;;;5.10;99.90;;;;;;5011885;28;20061;-78
2021/03/15 10:25:14;;;;;;;15.27;11.35;;;5.20;99.90;;;;;;5043737;28;20049;-78
2021/03/15 10:27:51;;;;;;;13.55;6.93;;;5.20;99.90;;;;;;5044692;28;20055;-79
2021/03/15 10:30:18;;;;;;;7.75;6.75;;;5.10;99.90;;;;;;5043135;28;20071;-79
2021/03/15 10:32:45;;;;;;;7.47;6.68;;;4.90;99.90;;;;;;5026123;28;20047;-78
2021/03/15 10:35:14;;;;;;;18.55;7.32;;;4.90;99.90;;;;;;5031621;28;20057;-80
2021/03/15 10:38:04;;;;;;;14.52;6.88;;;4.90;99.90;;;;;;5029506;28;20585;-77
2021/03/15 10:40:37;;;;;;;9.27;6.13;;;5.00;99.90;;;;;;5011366;28;20057;-77
2021/03/15 10:43:19;;;;;;;8.85;6.00;;;5.20;99.90;;;;;;5025793;28;20577;-79
2021/03/15 10:45:47;;;;;;;13.70;5.90;;;5.70;99.90;;;;;;5023633;28;20060;-78
2021/03/15 10:48:13;;;;;;;10.88;7.15;;;6.00;99.90;;;;;;5025513;28;20143;-80
2021/03/15 10:51:03;;;;;;;18.40;9.38;;;6.00;99.90;;;;;;5026920;28;20406;-78
2021/03/15 10:53:51;;;;;;;14.02;7.88;;;6.20;99.90;;;;;;5014258;28;20148;-78
2021/03/15 10:56:27;;;;;;;12.90;8.48;;;6.40;99.90;;;;;;5028665;28;20095;-80
2021/03/15 10:58:59;;;;;;;22.15;9.40;;;6.20;99.90;;;;;;5028071;28;20141;-80
2021/03/15 11:01:33;;;;;;;17.52;8.98;;;6.10;99.90;;;;;;5008174;28;20049;-78
2021/03/15 11:04:13;;;;;;;17.25;8.43;;;5.80;99.90;;;;;;5006521;28;20052;-77
2021/03/15 11:06:51;;;;;;;18.48;5.82;;;5.70;99.90;;;;;;5009363;28;20052;-78
2021/03/15 11:09:24;;;;;;;15.77;7.47;;;5.50;99.90;;;;;;5022579;28;20088;-77
2021/03/15 11:11:55;;;;;;;14.05;7.80;;;5.30;99.90;;;;;;5006254;28;20057;-77
2021/03/15 11:14:40;;;;;;;23.33;9.13;;;5.30;99.90;;;;;;5037094;28;20064;-77
2021/03/15 11:17:22;;;;;;;13.27;5.15;;;5.30;99.90;;;;;;5028253;28;20717;-77
2021/03/15 11:19:54;;;;;;;11.60;5.68;;;5.30;99.90;;;;;;5025782;28;20072;-78
2021/03/15 11:22:29;;;;;;;11.73;8.30;;;5.10;99.90;;;;;;5026891;28;20290;-77
2021/03/15 11:25:11;;;;;;;13.32;5.75;;;5.20;99.90;;;;;;5026136;28;20407;-77
2021/03/15 11:27:48;;;;;;;11.32;5.00;;;5.10;99.90;;;;;;5027957;28;20053;-78
2021/03/15 11:30:24;;;;;;;13.73;4.93;;;5.00;99.90;;;;;;5022655;28;20049;-78
2021/03/15 11:33:06;;;;;;;12.15;4.95;;;4.90;99.90;;;;;;5022881;28;20064;-78
2021/03/15 11:35:49;;;;;;;8.80;4.20;;;4.90;99.90;;;;;;5014729;28;20045;-78
2021/03/15 11:38:24;;;;;;;16.05;5.05;;;4.90;99.90;;;;;;5037733;28;20111;-77
2021/03/15 11:40:55;;;;;;;8.60;3.55;;;5.00;99.90;;;;;;5045180;28;20052;-77
2021/03/15 11:43:24;;;;;;;8.82;3.75;;;5.00;99.90;;;;;;5037666;28;20063;-77
2021/03/15 11:46:04;;;;;;;8.65;4.10;;;4.90;99.90;;;;;;5054686;28;20040;-78
2021/03/15 11:48:32;;;;;;;7.93;4.25;;;5.00;99.90;;;;;;5048062;28;20163;-77
2021/03/15 11:51:19;;;;;;;8.30;3.90;;;5.00;99.90;;;;;;5038687;28;20057;-79
2021/03/15 11:53:58;;;;;;;9.57;4.78;;;5.00;99.90;;;;;;5023656;28;20046;-79
2021/03/15 11:56:24;;;;;;;6.20;3.97;;;5.20;99.90;;;;;;5007277;28;20045;-77
2021/03/15 11:58:52;;;;;;;9.88;5.30;;;5.20;99.90;;;;;;5008251;28;20049;-77
2021/03/15 12:01:20;;;;;;;10.02;4.63;;;5.40;99.90;;;;;;5005921;28;20127;-78
2021/03/15 12:03:51;;;;;;;16.30;4.75;;;5.50;99.90;;;;;;5008504;28;20050;-78
2021/03/15 12:06:29;;;;;;;14.07;5.82;;;5.40;99.90;;;;;;5042755;28;20515;-77
2021/03/15 12:09:06;;;;;;;11.95;6.28;;;5.30;99.90;;;;;;5010174;28;20103;-78
2021/03/15 12:11:34;;;;;;;15.90;8.77;;;5.30;99.90;;;;;;5033124;28;20642;-77
2021/03/15 12:14:01;;;;;;;7.55;4.07;;;5.20;99.90;;;;;;5012852;28;20049;-76
2021/03/15 12:16:27;;;;;;;11.80;5.43;;;5.20;99.90;;;;;;5030108;28;20977;-78
2021/03/15 12:18:55;;;;;;;12.15;3.65;;;5.20;99.90;;;;;;5047565;28;20099;-77
2021/03/15 12:21:24;;;;;;;6.80;3.50;;;5.30;99.90;;;;;;5046184;28;20091;-77
2021/03/15 12:24:02;;;;;;;6.85;4.10;;;5.50;99.90;;;;;;5032212;28;20061;-78
2021/03/15 12:26:35;;;;;;;10.50;4.47;;;5.60;99.90;;;;;;5014281;28;20087;-77
2021/03/15 12:29:13;;;;;;;9.10;4.68;;;5.60;99.90;;;;;;5015610;28;20135;-76
2021/03/15 12:31:48;;;;;;;10.37;5.13;;;5.50;99.90;;;;;;5030484;28;20568;-77
2021/03/15 12:34:16;;;;;;;11.23;5.75;;;5.50;99.90;;;;;;5031173;28;20799;-76
2021/03/15 12:36:44;;;;;;;11.45;5.80;;;5.50;99.90;;;;;;5030322;28;20049;-78
2021/03/15 12:39:11;;;;;;;8.35;5.25;;;5.50;99.90;;;;;;5029961;28;20049;-77
2021/03/15 12:41:43;;;;;;;9.40;5.43;;;5.40;99.90;;;;;;5030796;28;20052;-80
2021/03/15 12:44:10;;;;;;;10.75;5.63;;;5.60;99.90;;;;;;5030563;28;20590;-76
2021/03/15 12:46:40;;;;;;;14.15;6.45;;;5.70;99.90;;;;;;5045033;28;20049;-77
2021/03/15 12:49:27;;;;;;;8.85;5.80;;;5.70;99.90;;;;;;5046167;28;20064;-77
2021/03/15 12:51:53;;;;;;;12.85;5.68;;;5.60;99.90;;;;;;5046216;28;20056;-77
2021/03/15 12:54:22;;;;;;;7.68;4.97;;;5.70;99.90;;;;;;5028175;28;20049;-78
2021/03/15 12:56:56;;;;;;;8.68;5.20;;;5.70;99.90;;;;;;5047227;28;20053;-78
2021/03/15 12:59:32;;;;;;;13.88;5.78;;;5.70;99.90;;;;;;5047261;28;20059;-77
2021/03/15 13:01:58;;;;;;;6.13;4.50;;;5.50;99.90;;;;;;5029237;28;20080;-77
2021/03/15 13:04:25;;;;;;;5.55;3.03;;;5.30;99.90;;;;;;5034736;28;20140;-78
2021/03/15 13:06:56;;;;;;;4.45;3.33;;;5.20;99.90;;;;;;5027229;28;20061;-77